Orbital elements of SL-16 DEB
| Launched | 24 December 1992 |
| Flight ended | – |
| Launch site | Tyuratam Missile and Space Center, Kazakhstan (Also known as Baikonur Cosmodrome) |
| Owner | Commonwealth of Independent States (former USSR) |
| NORAD ID | 22496 |
| Date fetched |
Epoch osculation |
Inc. [°] |
Ecc. | RA asc node [hr] |
Arg Peri. [°] |
Mean anom [°] |
Mean motion [rev/day] |
Abs. mag |
| Date fetched |
Epoch osculation |
Inc. [°] |
Ecc. | RA asc node [hr] |
Arg Peri. [°] |
Mean anom [°] |
Mean motion [rev/day] |
Abs. mag |
| 2026 May 07 17:58 | 2026 May 05 13:17:46 | 71.2143 | 0.00875 | 11.5414 | 98.1532 | 50.9263 | 13.97886 | – |
| 2026 May 06 17:57 | 2026 May 05 13:17:46 | 71.2143 | 0.00875 | 11.5414 | 98.1532 | 50.9263 | 13.97886 | – |
| 2026 May 05 17:57 | 2026 May 05 13:17:46 | 71.2143 | 0.00875 | 11.5414 | 98.1532 | 50.9263 | 13.97886 | – |
| 2026 May 04 17:57 | 2026 Apr 30 14:48:36 | 71.2149 | 0.00877 | 12.2059 | 105.8110 | 50.9263 | 13.97886 | – |
| 2026 May 03 17:57 | 2026 Apr 30 14:48:36 | 71.2149 | 0.00877 | 12.2059 | 105.8110 | 50.9263 | 13.97886 | – |
| 2026 May 02 17:57 | 2026 Apr 30 14:48:36 | 71.2149 | 0.00877 | 12.2059 | 105.8110 | 50.9263 | 13.97886 | – |
| 2026 May 01 17:56 | 2026 Apr 30 14:48:36 | 71.2149 | 0.00877 | 12.2059 | 105.8110 | 50.9263 | 13.97886 | – |
| 2026 Apr 30 17:56 | 2026 Apr 30 14:48:36 | 71.2149 | 0.00877 | 12.2059 | 105.8110 | 50.9263 | 13.97886 | – |
| 2026 Apr 29 17:57 | 2026 Apr 24 07:16:52 | 71.2157 | 0.00878 | 13.0558 | 115.5788 | 50.9263 | 13.97886 | – |
| 2026 Apr 28 17:56 | 2026 Apr 24 07:16:52 | 71.2157 | 0.00878 | 13.0558 | 115.5788 | 50.9263 | 13.97886 | – |
| 2026 Apr 27 17:58 | 2026 Apr 24 07:16:52 | 71.2157 | 0.00878 | 13.0558 | 115.5788 | 50.9263 | 13.97886 | – |
| 2026 Apr 26 17:58 | 2026 Apr 24 07:16:52 | 71.2157 | 0.00878 | 13.0558 | 115.5788 | 50.9263 | 13.97886 | – |
| 2026 Apr 25 17:58 | 2026 Apr 24 07:16:52 | 71.2157 | 0.00878 | 13.0558 | 115.5788 | 50.9263 | 13.97886 | – |
| 2026 Apr 24 17:59 | 2026 Apr 24 07:16:52 | 71.2157 | 0.00878 | 13.0558 | 115.5788 | 50.9263 | 13.97886 | – |
| 2026 Apr 23 17:57 | 2026 Apr 19 00:43:37 | 71.2157 | 0.00880 | 13.7655 | 123.7096 | 50.9263 | 13.97886 | – |
| 2026 Apr 22 17:57 | 2026 Apr 19 00:43:37 | 71.2157 | 0.00880 | 13.7655 | 123.7096 | 50.9263 | 13.97886 | – |
| 2026 Apr 21 17:57 | 2026 Apr 19 00:43:37 | 71.2157 | 0.00880 | 13.7655 | 123.7096 | 50.9263 | 13.97886 | – |
| 2026 Apr 20 17:57 | 2026 Apr 19 00:43:37 | 71.2157 | 0.00880 | 13.7655 | 123.7096 | 50.9263 | 13.97886 | – |
| 2026 Apr 19 17:58 | 2026 Apr 19 00:43:37 | 71.2157 | 0.00880 | 13.7655 | 123.7096 | 50.9263 | 13.97886 | – |
| 2026 Apr 18 17:56 | 2026 Apr 12 08:18:11 | 71.2156 | 0.00883 | 14.6653 | 133.9900 | 50.9263 | 13.97886 | – |
| 2026 Apr 16 17:57 | 2026 Apr 12 08:18:11 | 71.2156 | 0.00883 | 14.6653 | 133.9900 | 50.9263 | 13.97886 | – |
| 2026 Apr 14 17:57 | 2026 Apr 12 08:18:11 | 71.2156 | 0.00883 | 14.6653 | 133.9900 | 50.9263 | 13.97886 | – |
| 2026 Apr 13 17:57 | 2026 Apr 12 08:18:11 | 71.2156 | 0.00883 | 14.6653 | 133.9900 | 50.9263 | 13.97886 | – |
| 2026 Apr 12 17:57 | 2026 Apr 08 08:06:50 | 71.2150 | 0.00885 | 15.2048 | 140.1464 | 50.9263 | 13.97886 | – |
| 2026 Apr 11 17:57 | 2026 Apr 08 08:06:50 | 71.2150 | 0.00885 | 15.2048 | 140.1464 | 50.9263 | 13.97886 | – |
| 2026 Apr 10 17:58 | 2026 Apr 08 08:06:50 | 71.2150 | 0.00885 | 15.2048 | 140.1464 | 50.9263 | 13.97886 | – |